sensor_id;sensor_type;location;lat;lon;timestamp;P1;durP1;ratioP1;P2;durP2;ratioP2
4857;SDS011;58975;51.978;8.472;2023-05-15T00:00:02;6.53;;;5.83;;
4857;SDS011;58975;51.978;8.472;2023-05-15T00:05:01;6.70;;;5.82;;
4857;SDS011;58975;51.978;8.472;2023-05-15T00:09:58;6.45;;;5.50;;
4857;SDS011;58975;51.978;8.472;2023-05-15T00:14:54;4.50;;;4.10;;
4857;SDS011;58975;51.978;8.472;2023-05-15T00:19:51;5.78;;;5.18;;
4857;SDS011;58975;51.978;8.472;2023-05-15T00:24:52;8.23;;;5.38;;
4857;SDS011;58975;51.978;8.472;2023-05-15T00:29:49;6.72;;;5.53;;
4857;SDS011;58975;51.978;8.472;2023-05-15T00:34:45;8.38;;;7.28;;
4857;SDS011;58975;51.978;8.472;2023-05-15T00:39:41;39.97;;;7.38;;
4857;SDS011;58975;51.978;8.472;2023-05-15T00:44:38;5.80;;;5.20;;
4857;SDS011;58975;51.978;8.472;2023-05-15T00:49:35;5.70;;;5.03;;
4857;SDS011;58975;51.978;8.472;2023-05-15T00:54:33;5.33;;;4.70;;
4857;SDS011;58975;51.978;8.472;2023-05-15T00:59:30;5.53;;;4.45;;
4857;SDS011;58975;51.978;8.472;2023-05-15T01:04:27;5.47;;;4.63;;
4857;SDS011;58975;51.978;8.472;2023-05-15T01:09:24;5.90;;;5.30;;
4857;SDS011;58975;51.978;8.472;2023-05-15T01:14:22;4.43;;;3.97;;
4857;SDS011;58975;51.978;8.472;2023-05-15T01:19:18;11.13;;;4.32;;
4857;SDS011;58975;51.978;8.472;2023-05-15T01:35:22;5.10;;;4.60;;
4857;SDS011;58975;51.978;8.472;2023-05-15T01:40:28;6.97;;;4.38;;
4857;SDS011;58975;51.978;8.472;2023-05-15T01:45:25;5.38;;;4.85;;
4857;SDS011;58975;51.978;8.472;2023-05-15T01:50:24;9.55;;;5.75;;
4857;SDS011;58975;51.978;8.472;2023-05-15T01:55:22;6.47;;;5.53;;
4857;SDS011;58975;51.978;8.472;2023-05-15T02:00:21;9.27;;;6.03;;
4857;SDS011;58975;51.978;8.472;2023-05-15T02:05:17;11.90;;;7.75;;
4857;SDS011;58975;51.978;8.472;2023-05-15T02:10:14;11.18;;;2.97;;
4857;SDS011;58975;51.978;8.472;2023-05-15T02:15:12;7.78;;;6.53;;
4857;SDS011;58975;51.978;8.472;2023-05-15T02:20:09;5.90;;;4.97;;
4857;SDS011;58975;51.978;8.472;2023-05-15T02:25:06;7.95;;;5.45;;
4857;SDS011;58975;51.978;8.472;2023-05-15T02:30:10;8.85;;;6.68;;
4857;SDS011;58975;51.978;8.472;2023-05-15T02:40:35;10.35;;;7.70;;
4857;SDS011;58975;51.978;8.472;2023-05-15T02:45:32;9.23;;;7.47;;
4857;SDS011;58975;51.978;8.472;2023-05-15T02:50:29;5.05;;;4.40;;
4857;SDS011;58975;51.978;8.472;2023-05-15T02:55:26;10.82;;;8.00;;
4857;SDS011;58975;51.978;8.472;2023-05-15T03:00:22;7.57;;;6.57;;
4857;SDS011;58975;51.978;8.472;2023-05-15T03:05:19;32.55;;;7.85;;
4857;SDS011;58975;51.978;8.472;2023-05-15T03:10:16;29.95;;;8.15;;
4857;SDS011;58975;51.978;8.472;2023-05-15T03:15:12;9.35;;;6.70;;
4857;SDS011;58975;51.978;8.472;2023-05-15T03:20:08;7.35;;;6.38;;
4857;SDS011;58975;51.978;8.472;2023-05-15T03:25:08;9.47;;;7.50;;
4857;SDS011;58975;51.978;8.472;2023-05-15T03:30:06;8.52;;;7.15;;
4857;SDS011;58975;51.978;8.472;2023-05-15T03:35:03;8.80;;;7.32;;
4857;SDS011;58975;51.978;8.472;2023-05-15T03:40:00;438.75;;;20.40;;
4857;SDS011;58975;51.978;8.472;2023-05-15T03:44:56;8.20;;;6.47;;
4857;SDS011;58975;51.978;8.472;2023-05-15T03:49:52;7.80;;;6.55;;
4857;SDS011;58975;51.978;8.472;2023-05-15T03:54:49;7.82;;;6.38;;
4857;SDS011;58975;51.978;8.472;2023-05-15T03:59:45;8.18;;;6.35;;
4857;SDS011;58975;51.978;8.472;2023-05-15T04:04:41;8.65;;;5.38;;
4857;SDS011;58975;51.978;8.472;2023-05-15T04:09:39;9.50;;;7.67;;
4857;SDS011;58975;51.978;8.472;2023-05-15T04:14:36;20.85;;;7.50;;
4857;SDS011;58975;51.978;8.472;2023-05-15T04:19:33;41.83;;;7.50;;
4857;SDS011;58975;51.978;8.472;2023-05-15T04:24:29;10.02;;;7.80;;
4857;SDS011;58975;51.978;8.472;2023-05-15T04:29:25;10.30;;;7.43;;
4857;SDS011;58975;51.978;8.472;2023-05-15T04:34:21;8.52;;;6.50;;
4857;SDS011;58975;51.978;8.472;2023-05-15T04:39:18;8.98;;;6.93;;
4857;SDS011;58975;51.978;8.472;2023-05-15T04:44:14;10.40;;;7.35;;
4857;SDS011;58975;51.978;8.472;2023-05-15T04:49:11;12.18;;;8.90;;
4857;SDS011;58975;51.978;8.472;2023-05-15T04:54:07;11.18;;;8.38;;
4857;SDS011;58975;51.978;8.472;2023-05-15T04:59:04;18.63;;;12.05;;
4857;SDS011;58975;51.978;8.472;2023-05-15T05:04:00;17.02;;;11.32;;
4857;SDS011;58975;51.978;8.472;2023-05-15T05:08:57;19.02;;;12.60;;
4857;SDS011;58975;51.978;8.472;2023-05-15T05:13:53;19.42;;;13.30;;
4857;SDS011;58975;51.978;8.472;2023-05-15T05:18:49;18.58;;;14.07;;
4857;SDS011;58975;51.978;8.472;2023-05-15T05:23:46;18.10;;;13.13;;
4857;SDS011;58975;51.978;8.472;2023-05-15T05:28:42;22.10;;;14.25;;
4857;SDS011;58975;51.978;8.472;2023-05-15T05:33:39;18.88;;;14.75;;
4857;SDS011;58975;51.978;8.472;2023-05-15T05:38:36;23.48;;;15.63;;
4857;SDS011;58975;51.978;8.472;2023-05-15T05:43:33;25.48;;;14.10;;
4857;SDS011;58975;51.978;8.472;2023-05-15T05:48:29;27.85;;;15.88;;
4857;SDS011;58975;51.978;8.472;2023-05-15T05:53:25;20.23;;;15.20;;
4857;SDS011;58975;51.978;8.472;2023-05-15T05:58:22;28.58;;;15.80;;
4857;SDS011;58975;51.978;8.472;2023-05-15T06:03:21;23.40;;;16.40;;
4857;SDS011;58975;51.978;8.472;2023-05-15T06:08:18;22.88;;;15.20;;
4857;SDS011;58975;51.978;8.472;2023-05-15T06:13:15;20.98;;;15.82;;
4857;SDS011;58975;51.978;8.472;2023-05-15T06:18:11;22.20;;;14.15;;
4857;SDS011;58975;51.978;8.472;2023-05-15T06:23:08;24.45;;;14.98;;
4857;SDS011;58975;51.978;8.472;2023-05-15T06:28:05;20.95;;;15.38;;
4857;SDS011;58975;51.978;8.472;2023-05-15T06:33:01;17.52;;;14.00;;
4857;SDS011;58975;51.978;8.472;2023-05-15T06:37:58;16.83;;;13.50;;
4857;SDS011;58975;51.978;8.472;2023-05-15T06:42:54;20.15;;;13.88;;
4857;SDS011;58975;51.978;8.472;2023-05-15T06:47:50;15.20;;;13.25;;
4857;SDS011;58975;51.978;8.472;2023-05-15T06:52:47;16.38;;;11.98;;
4857;SDS011;58975;51.978;8.472;2023-05-15T06:57:43;18.65;;;14.65;;
4857;SDS011;58975;51.978;8.472;2023-05-15T07:02:40;16.08;;;12.38;;
4857;SDS011;58975;51.978;8.472;2023-05-15T07:07:36;14.25;;;12.32;;
4857;SDS011;58975;51.978;8.472;2023-05-15T07:12:33;19.92;;;14.68;;
4857;SDS011;58975;51.978;8.472;2023-05-15T07:17:30;19.23;;;13.95;;
4857;SDS011;58975;51.978;8.472;2023-05-15T07:22:28;20.02;;;12.93;;
4857;SDS011;58975;51.978;8.472;2023-05-15T07:27:27;16.90;;;13.05;;
4857;SDS011;58975;51.978;8.472;2023-05-15T07:32:24;20.58;;;13.32;;
4857;SDS011;58975;51.978;8.472;2023-05-15T07:37:20;17.13;;;12.18;;
4857;SDS011;58975;51.978;8.472;2023-05-15T07:42:18;14.90;;;12.05;;
4857;SDS011;58975;51.978;8.472;2023-05-15T07:47:14;14.02;;;10.98;;
4857;SDS011;58975;51.978;8.472;2023-05-15T07:52:11;14.55;;;11.38;;
4857;SDS011;58975;51.978;8.472;2023-05-15T07:57:07;14.23;;;11.30;;
4857;SDS011;58975;51.978;8.472;2023-05-15T08:02:04;14.70;;;10.65;;
4857;SDS011;58975;51.978;8.472;2023-05-15T08:07:00;14.73;;;10.65;;
4857;SDS011;58975;51.978;8.472;2023-05-15T08:12:13;19.33;;;12.02;;
4857;SDS011;58975;51.978;8.472;2023-05-15T08:17:12;18.42;;;11.48;;
4857;SDS011;58975;51.978;8.472;2023-05-15T08:22:09;15.48;;;10.90;;
4857;SDS011;58975;51.978;8.472;2023-05-15T08:27:05;13.85;;;9.95;;
4857;SDS011;58975;51.978;8.472;2023-05-15T08:32:04;16.20;;;11.00;;
4857;SDS011;58975;51.978;8.472;2023-05-15T08:47:14;17.45;;;11.05;;
4857;SDS011;58975;51.978;8.472;2023-05-15T08:52:11;13.85;;;11.05;;
4857;SDS011;58975;51.978;8.472;2023-05-15T08:57:07;21.98;;;12.38;;
4857;SDS011;58975;51.978;8.472;2023-05-15T09:02:04;15.83;;;12.07;;
4857;SDS011;58975;51.978;8.472;2023-05-15T09:07:01;15.35;;;11.00;;
4857;SDS011;58975;51.978;8.472;2023-05-15T09:11:59;14.05;;;11.60;;
4857;SDS011;58975;51.978;8.472;2023-05-15T09:16:57;17.80;;;13.55;;
4857;SDS011;58975;51.978;8.472;2023-05-15T09:21:54;19.17;;;13.55;;
4857;SDS011;58975;51.978;8.472;2023-05-15T09:27:01;17.33;;;14.02;;
4857;SDS011;58975;51.978;8.472;2023-05-15T09:32:02;31.30;;;21.80;;
4857;SDS011;58975;51.978;8.472;2023-05-15T09:37:04;29.13;;;21.52;;
4857;SDS011;58975;51.978;8.472;2023-05-15T09:42:05;30.45;;;21.88;;
4857;SDS011;58975;51.978;8.472;2023-05-15T09:47:03;31.75;;;22.20;;
4857;SDS011;58975;51.978;8.472;2023-05-15T09:52:00;31.88;;;20.45;;
4857;SDS011;58975;51.978;8.472;2023-05-15T09:57:05;27.02;;;19.17;;
4857;SDS011;58975;51.978;8.472;2023-05-15T10:02:04;30.77;;;20.17;;
4857;SDS011;58975;51.978;8.472;2023-05-15T10:07:01;28.03;;;18.33;;
4857;SDS011;58975;51.978;8.472;2023-05-15T10:11:58;25.60;;;18.48;;
4857;SDS011;58975;51.978;8.472;2023-05-15T10:16:54;32.72;;;21.80;;
4857;SDS011;58975;51.978;8.472;2023-05-15T10:21:52;31.00;;;21.92;;
4857;SDS011;58975;51.978;8.472;2023-05-15T10:26:51;31.73;;;21.48;;
4857;SDS011;58975;51.978;8.472;2023-05-15T10:31:52;31.10;;;20.40;;
4857;SDS011;58975;51.978;8.472;2023-05-15T10:36:49;28.13;;;17.95;;
4857;SDS011;58975;51.978;8.472;2023-05-15T10:41:49;30.67;;;19.23;;
4857;SDS011;58975;51.978;8.472;2023-05-15T10:46:47;32.13;;;22.50;;
4857;SDS011;58975;51.978;8.472;2023-05-15T10:51:44;36.97;;;23.57;;
4857;SDS011;58975;51.978;8.472;2023-05-15T10:56:40;34.10;;;23.23;;
4857;SDS011;58975;51.978;8.472;2023-05-15T11:01:38;35.53;;;22.63;;
4857;SDS011;58975;51.978;8.472;2023-05-15T11:06:36;34.30;;;21.58;;
4857;SDS011;58975;51.978;8.472;2023-05-15T11:21:59;33.17;;;21.17;;
4857;SDS011;58975;51.978;8.472;2023-05-15T11:26:58;35.30;;;22.65;;
4857;SDS011;58975;51.978;8.472;2023-05-15T11:31:55;37.08;;;22.88;;
4857;SDS011;58975;51.978;8.472;2023-05-15T11:36:52;28.77;;;19.08;;
4857;SDS011;58975;51.978;8.472;2023-05-15T11:41:48;30.33;;;19.65;;
4857;SDS011;58975;51.978;8.472;2023-05-15T11:46:45;29.30;;;19.08;;
4857;SDS011;58975;51.978;8.472;2023-05-15T11:51:41;28.63;;;18.70;;
4857;SDS011;58975;51.978;8.472;2023-05-15T11:56:42;27.38;;;18.35;;
4857;SDS011;58975;51.978;8.472;2023-05-15T12:01:40;27.48;;;18.42;;
4857;SDS011;58975;51.978;8.472;2023-05-15T12:06:38;29.98;;;18.33;;
4857;SDS011;58975;51.978;8.472;2023-05-15T12:11:35;27.55;;;17.10;;
4857;SDS011;58975;51.978;8.472;2023-05-15T12:16:32;26.05;;;16.50;;
4857;SDS011;58975;51.978;8.472;2023-05-15T12:21:29;22.90;;;15.00;;
4857;SDS011;58975;51.978;8.472;2023-05-15T12:26:26;18.55;;;13.50;;
4857;SDS011;58975;51.978;8.472;2023-05-15T12:31:24;20.20;;;13.77;;
4857;SDS011;58975;51.978;8.472;2023-05-15T12:36:21;22.00;;;12.88;;
4857;SDS011;58975;51.978;8.472;2023-05-15T12:41:17;21.55;;;16.25;;
4857;SDS011;58975;51.978;8.472;2023-05-15T12:46:15;27.58;;;14.85;;
4857;SDS011;58975;51.978;8.472;2023-05-15T12:51:17;19.17;;;13.73;;
4857;SDS011;58975;51.978;8.472;2023-05-15T12:56:17;19.92;;;13.43;;
4857;SDS011;58975;51.978;8.472;2023-05-15T13:01:14;20.67;;;14.88;;
4857;SDS011;58975;51.978;8.472;2023-05-15T13:06:12;18.60;;;12.43;;
4857;SDS011;58975;51.978;8.472;2023-05-15T13:11:12;19.13;;;12.90;;
4857;SDS011;58975;51.978;8.472;2023-05-15T13:16:19;20.67;;;12.15;;
4857;SDS011;58975;51.978;8.472;2023-05-15T13:21:20;17.80;;;12.23;;
4857;SDS011;58975;51.978;8.472;2023-05-15T13:26:17;12.98;;;9.10;;
4857;SDS011;58975;51.978;8.472;2023-05-15T13:31:14;12.23;;;8.63;;
4857;SDS011;58975;51.978;8.472;2023-05-15T13:36:10;8.85;;;7.07;;
4857;SDS011;58975;51.978;8.472;2023-05-15T13:41:07;8.27;;;5.95;;
4857;SDS011;58975;51.978;8.472;2023-05-15T13:46:07;8.90;;;5.80;;
4857;SDS011;58975;51.978;8.472;2023-05-15T13:51:04;8.47;;;5.77;;
4857;SDS011;58975;51.978;8.472;2023-05-15T14:00:58;10.45;;;6.07;;
4857;SDS011;58975;51.978;8.472;2023-05-15T14:05:58;8.68;;;5.70;;
4857;SDS011;58975;51.978;8.472;2023-05-15T14:10:55;8.23;;;5.53;;
4857;SDS011;58975;51.978;8.472;2023-05-15T14:15:52;8.85;;;5.82;;
4857;SDS011;58975;51.978;8.472;2023-05-15T14:20:48;8.38;;;6.35;;
4857;SDS011;58975;51.978;8.472;2023-05-15T14:25:46;8.37;;;6.37;;
4857;SDS011;58975;51.978;8.472;2023-05-15T14:30:42;8.07;;;6.13;;
4857;SDS011;58975;51.978;8.472;2023-05-15T14:35:39;8.75;;;5.60;;
4857;SDS011;58975;51.978;8.472;2023-05-15T14:40:35;6.18;;;4.95;;
4857;SDS011;58975;51.978;8.472;2023-05-15T14:45:32;9.10;;;5.25;;
4857;SDS011;58975;51.978;8.472;2023-05-15T14:50:29;10.68;;;5.00;;
4857;SDS011;58975;51.978;8.472;2023-05-15T14:55:26;9.07;;;6.15;;
4857;SDS011;58975;51.978;8.472;2023-05-15T15:00:23;13.82;;;7.10;;
4857;SDS011;58975;51.978;8.472;2023-05-15T15:05:19;11.52;;;7.00;;
4857;SDS011;58975;51.978;8.472;2023-05-15T15:10:17;12.90;;;8.15;;
4857;SDS011;58975;51.978;8.472;2023-05-15T15:15:13;11.10;;;8.05;;
4857;SDS011;58975;51.978;8.472;2023-05-15T15:20:10;9.73;;;7.22;;
4857;SDS011;58975;51.978;8.472;2023-05-15T15:25:07;11.07;;;7.73;;
4857;SDS011;58975;51.978;8.472;2023-05-15T15:30:04;10.50;;;6.13;;
4857;SDS011;58975;51.978;8.472;2023-05-15T15:35:01;14.27;;;7.38;;
4857;SDS011;58975;51.978;8.472;2023-05-15T15:40:00;11.10;;;7.32;;
4857;SDS011;58975;51.978;8.472;2023-05-15T15:45:05;15.35;;;9.10;;
4857;SDS011;58975;51.978;8.472;2023-05-15T15:50:02;12.60;;;7.60;;
4857;SDS011;58975;51.978;8.472;2023-05-15T15:54:59;13.63;;;7.40;;
4857;SDS011;58975;51.978;8.472;2023-05-15T15:59:56;12.27;;;6.55;;
4857;SDS011;58975;51.978;8.472;2023-05-15T16:04:53;11.83;;;6.20;;
4857;SDS011;58975;51.978;8.472;2023-05-15T16:09:50;15.55;;;4.53;;
4857;SDS011;58975;51.978;8.472;2023-05-15T16:15:06;4.65;;;3.85;;
4857;SDS011;58975;51.978;8.472;2023-05-15T16:20:18;4.30;;;3.60;;
4857;SDS011;58975;51.978;8.472;2023-05-15T16:25:14;4.78;;;3.85;;
4857;SDS011;58975;51.978;8.472;2023-05-15T16:30:11;5.95;;;4.10;;
4857;SDS011;58975;51.978;8.472;2023-05-15T16:35:09;8.02;;;3.97;;
4857;SDS011;58975;51.978;8.472;2023-05-15T16:40:09;3.50;;;2.92;;
4857;SDS011;58975;51.978;8.472;2023-05-15T16:45:06;4.10;;;3.27;;
4857;SDS011;58975;51.978;8.472;2023-05-15T16:50:03;5.35;;;2.90;;
4857;SDS011;58975;51.978;8.472;2023-05-15T16:55:00;6.20;;;3.05;;
4857;SDS011;58975;51.978;8.472;2023-05-15T16:59:57;4.78;;;3.28;;
4857;SDS011;58975;51.978;8.472;2023-05-15T17:04:53;3.78;;;3.05;;
4857;SDS011;58975;51.978;8.472;2023-05-15T17:09:50;4.57;;;2.88;;
4857;SDS011;58975;51.978;8.472;2023-05-15T17:14:46;5.93;;;3.08;;
4857;SDS011;58975;51.978;8.472;2023-05-15T17:19:43;6.72;;;3.50;;
4857;SDS011;58975;51.978;8.472;2023-05-15T17:24:40;4.15;;;2.95;;
4857;SDS011;58975;51.978;8.472;2023-05-15T17:29:46;3.80;;;3.15;;
4857;SDS011;58975;51.978;8.472;2023-05-15T17:34:43;8.15;;;4.35;;
4857;SDS011;58975;51.978;8.472;2023-05-15T17:39:40;14.80;;;4.25;;
4857;SDS011;58975;51.978;8.472;2023-05-15T17:44:37;6.47;;;3.97;;
4857;SDS011;58975;51.978;8.472;2023-05-15T17:49:33;6.78;;;4.10;;
4857;SDS011;58975;51.978;8.472;2023-05-15T17:54:30;4.90;;;4.03;;
4857;SDS011;58975;51.978;8.472;2023-05-15T17:59:26;11.35;;;5.15;;
4857;SDS011;58975;51.978;8.472;2023-05-15T18:04:22;10.15;;;6.28;;
4857;SDS011;58975;51.978;8.472;2023-05-15T18:09:19;6.32;;;5.47;;
4857;SDS011;58975;51.978;8.472;2023-05-15T18:14:19;11.93;;;7.25;;
4857;SDS011;58975;51.978;8.472;2023-05-15T18:19:16;10.13;;;6.65;;
4857;SDS011;58975;51.978;8.472;2023-05-15T18:24:13;9.27;;;6.60;;
4857;SDS011;58975;51.978;8.472;2023-05-15T18:29:09;11.75;;;7.13;;
4857;SDS011;58975;51.978;8.472;2023-05-15T18:34:06;5.30;;;4.03;;
4857;SDS011;58975;51.978;8.472;2023-05-15T18:39:02;4.68;;;3.53;;
4857;SDS011;58975;51.978;8.472;2023-05-15T18:44:00;4.20;;;3.80;;
4857;SDS011;58975;51.978;8.472;2023-05-15T18:48:56;4.95;;;4.45;;
4857;SDS011;58975;51.978;8.472;2023-05-15T18:53:53;4.55;;;3.85;;
4857;SDS011;58975;51.978;8.472;2023-05-15T18:58:49;3.95;;;3.28;;
4857;SDS011;58975;51.978;8.472;2023-05-15T19:03:46;5.15;;;2.90;;
4857;SDS011;58975;51.978;8.472;2023-05-15T19:08:42;3.42;;;3.05;;
4857;SDS011;58975;51.978;8.472;2023-05-15T19:13:39;7.97;;;5.25;;
4857;SDS011;58975;51.978;8.472;2023-05-15T19:18:35;6.00;;;4.30;;
4857;SDS011;58975;51.978;8.472;2023-05-15T19:23:32;4.55;;;3.88;;
4857;SDS011;58975;51.978;8.472;2023-05-15T19:28:28;6.43;;;4.57;;
4857;SDS011;58975;51.978;8.472;2023-05-15T19:33:24;9.75;;;6.47;;
4857;SDS011;58975;51.978;8.472;2023-05-15T19:38:21;12.15;;;7.20;;
4857;SDS011;58975;51.978;8.472;2023-05-15T19:43:17;9.57;;;6.97;;
4857;SDS011;58975;51.978;8.472;2023-05-15T19:48:13;12.57;;;6.93;;
4857;SDS011;58975;51.978;8.472;2023-05-15T19:53:10;10.82;;;7.60;;
4857;SDS011;58975;51.978;8.472;2023-05-15T19:58:07;11.20;;;7.78;;
4857;SDS011;58975;51.978;8.472;2023-05-15T20:03:03;12.35;;;7.85;;
4857;SDS011;58975;51.978;8.472;2023-05-15T20:08:00;12.77;;;8.23;;
4857;SDS011;58975;51.978;8.472;2023-05-15T20:12:56;14.18;;;7.72;;
4857;SDS011;58975;51.978;8.472;2023-05-15T20:17:53;10.57;;;7.53;;
4857;SDS011;58975;51.978;8.472;2023-05-15T20:22:50;10.93;;;8.50;;
4857;SDS011;58975;51.978;8.472;2023-05-15T20:27:46;11.40;;;7.55;;
4857;SDS011;58975;51.978;8.472;2023-05-15T20:32:43;12.80;;;7.75;;
4857;SDS011;58975;51.978;8.472;2023-05-15T20:37:39;12.10;;;8.52;;
4857;SDS011;58975;51.978;8.472;2023-05-15T20:42:37;12.40;;;9.05;;
4857;SDS011;58975;51.978;8.472;2023-05-15T20:47:34;12.15;;;9.40;;
4857;SDS011;58975;51.978;8.472;2023-05-15T20:52:31;13.25;;;9.70;;
4857;SDS011;58975;51.978;8.472;2023-05-15T20:57:27;14.18;;;9.70;;
4857;SDS011;58975;51.978;8.472;2023-05-15T21:02:24;12.85;;;9.73;;
4857;SDS011;58975;51.978;8.472;2023-05-15T21:07:20;12.32;;;8.20;;
4857;SDS011;58975;51.978;8.472;2023-05-15T21:12:16;12.52;;;9.23;;
4857;SDS011;58975;51.978;8.472;2023-05-15T21:17:13;13.05;;;9.52;;
4857;SDS011;58975;51.978;8.472;2023-05-15T21:22:10;22.70;;;11.48;;
4857;SDS011;58975;51.978;8.472;2023-05-15T21:27:06;15.90;;;9.80;;
4857;SDS011;58975;51.978;8.472;2023-05-15T21:32:03;13.35;;;10.07;;
4857;SDS011;58975;51.978;8.472;2023-05-15T21:37:00;17.42;;;10.85;;
4857;SDS011;58975;51.978;8.472;2023-05-15T21:41:57;13.55;;;9.63;;
4857;SDS011;58975;51.978;8.472;2023-05-15T21:46:53;13.82;;;9.70;;
4857;SDS011;58975;51.978;8.472;2023-05-15T21:51:50;16.23;;;11.10;;
4857;SDS011;58975;51.978;8.472;2023-05-15T21:56:46;15.35;;;11.02;;
4857;SDS011;58975;51.978;8.472;2023-05-15T22:01:43;15.05;;;11.02;;
4857;SDS011;58975;51.978;8.472;2023-05-15T22:06:39;15.77;;;10.30;;
4857;SDS011;58975;51.978;8.472;2023-05-15T22:11:36;13.43;;;9.40;;
4857;SDS011;58975;51.978;8.472;2023-05-15T22:16:32;17.42;;;11.63;;
4857;SDS011;58975;51.978;8.472;2023-05-15T22:21:30;17.70;;;12.27;;
4857;SDS011;58975;51.978;8.472;2023-05-15T22:26:27;17.77;;;10.68;;
4857;SDS011;58975;51.978;8.472;2023-05-15T22:31:23;17.45;;;11.63;;
4857;SDS011;58975;51.978;8.472;2023-05-15T22:36:20;19.85;;;12.65;;
4857;SDS011;58975;51.978;8.472;2023-05-15T22:41:16;20.42;;;12.50;;
4857;SDS011;58975;51.978;8.472;2023-05-15T22:46:13;20.95;;;12.32;;
4857;SDS011;58975;51.978;8.472;2023-05-15T22:51:11;21.98;;;12.90;;
4857;SDS011;58975;51.978;8.472;2023-05-15T22:56:07;19.50;;;11.25;;
4857;SDS011;58975;51.978;8.472;2023-05-15T23:01:03;20.42;;;10.75;;
4857;SDS011;58975;51.978;8.472;2023-05-15T23:06:00;16.80;;;11.10;;
4857;SDS011;58975;51.978;8.472;2023-05-15T23:10:57;16.13;;;10.70;;
4857;SDS011;58975;51.978;8.472;2023-05-15T23:15:53;15.88;;;9.82;;
4857;SDS011;58975;51.978;8.472;2023-05-15T23:20:50;16.40;;;10.23;;
4857;SDS011;58975;51.978;8.472;2023-05-15T23:25:46;18.10;;;9.55;;
4857;SDS011;58975;51.978;8.472;2023-05-15T23:30:43;13.07;;;9.23;;
4857;SDS011;58975;51.978;8.472;2023-05-15T23:35:39;13.90;;;8.15;;
4857;SDS011;58975;51.978;8.472;2023-05-15T23:40:35;14.20;;;9.52;;
4857;SDS011;58975;51.978;8.472;2023-05-15T23:45:32;18.88;;;8.60;;
4857;SDS011;58975;51.978;8.472;2023-05-15T23:50:28;14.23;;;8.40;;
4857;SDS011;58975;51.978;8.472;2023-05-15T23:55:25;11.80;;;7.80;;
